Time;durP1;ratioP1;P1;durP2;ratioP2;P2;SDS_P1;SDS_P2;PMS_P1;PMS_P2;Temp;Humidity;BMP_temperature;BMP_pressure;BME280_temperature;BME280_humidity;BME280_pressure;Samples;Min_cycle;Max_cycle;Signal;HPM_P1;HPM_P2
2022/06/25 00:01:15;;;;;;;6.65;4.53;;;;;;;18.29;100.00;100725.25;5071168;28;20036;-45
2022/06/25 00:03:44;;;;;;;7.85;4.18;;;;;;;18.28;100.00;100722.72;5066141;28;20048;-51
2022/06/25 00:06:12;;;;;;;8.75;4.90;;;;;;;18.27;100.00;100721.91;5067417;28;20036;-47
2022/06/25 00:08:45;;;;;;;10.07;4.80;;;;;;;18.25;100.00;100726.53;5069117;28;20064;-49
2022/06/25 00:14:04;;;;;;;5.63;4.07;;;;;;;18.22;100.00;100729.50;5070592;28;20517;-54
2022/06/25 00:16:33;;;;;;;8.98;4.43;;;;;;;18.20;100.00;100728.81;5071148;28;20044;-47
2022/06/25 00:19:01;;;;;;;7.03;4.57;;;;;;;18.13;100.00;100725.91;5071256;28;20028;-46
2022/06/25 00:21:29;;;;;;;12.70;4.43;;;;;;;18.10;100.00;100726.22;5071215;28;20416;-54
2022/06/25 00:23:57;;;;;;;7.22;4.30;;;;;;;18.03;100.00;100723.34;5070383;28;20517;-51
2022/06/25 00:26:28;;;;;;;7.03;4.15;;;;;;;18.08;100.00;100731.72;5066757;28;20067;-54
2022/06/25 00:28:56;;;;;;;6.88;4.43;;;;;;;18.08;100.00;100725.56;5067522;28;20033;-54
2022/06/25 00:31:24;;;;;;;9.02;4.85;;;;;;;18.01;100.00;100729.78;5069174;28;20064;-51
2022/06/25 00:33:52;;;;;;;8.40;3.92;;;;;;;17.99;100.00;100729.13;5070774;28;20102;-49
2022/06/25 00:36:20;;;;;;;8.15;4.40;;;;;;;18.02;100.00;100729.63;5074753;28;20048;-50
2022/06/25 00:38:48;;;;;;;6.63;4.63;;;;;;;17.99;100.00;100734.44;5075264;28;20048;-55
2022/06/25 00:41:17;;;;;;;7.57;4.60;;;;;;;17.93;100.00;100730.56;5074370;28;20082;-48
2022/06/25 00:43:47;;;;;;;9.20;4.35;;;;;;;17.94;100.00;100734.88;5071711;28;20056;-50
2022/06/25 00:46:15;;;;;;;7.40;4.65;;;;;;;18.02;100.00;100734.13;5071152;28;20052;-46
2022/06/25 00:48:43;;;;;;;7.25;4.65;;;;;;;17.94;100.00;100729.56;5075075;28;20131;-50
2022/06/25 00:51:13;;;;;;;7.15;4.35;;;;;;;17.96;100.00;100735.59;5071837;28;20045;-53
2022/06/25 00:53:44;;;;;;;10.00;4.60;;;;;;;17.95;100.00;100736.56;5074351;28;20045;-54
2022/06/25 00:56:14;;;;;;;6.47;4.00;;;;;;;17.92;100.00;100739.53;5068378;28;20067;-55
2022/06/25 00:58:44;;;;;;;9.80;4.45;;;;;;;17.87;100.00;100747.94;5070943;28;20044;-55
2022/06/25 01:01:15;;;;;;;6.15;4.32;;;;;;;17.85;100.00;100743.75;5074459;28;20064;-54
2022/06/25 01:03:43;;;;;;;6.80;4.45;;;;;;;17.81;100.00;100759.16;5071046;28;20392;-54
2022/06/25 01:06:11;;;;;;;8.07;4.90;;;;;;;17.75;100.00;100746.44;5074069;28;20041;-47
2022/06/25 01:08:40;;;;;;;7.13;4.22;;;;;;;17.76;100.00;100750.78;5074321;28;20105;-54
2022/06/25 01:11:10;;;;;;;7.32;4.57;;;;;;;17.72;100.00;100747.63;5074188;28;20044;-45
2022/06/25 01:13:39;;;;;;;6.80;4.55;;;;;;;17.73;100.00;100754.59;5074536;28;20040;-45
2022/06/25 01:16:07;;;;;;;7.30;4.57;;;;;;;17.69;100.00;100757.69;5073750;28;20043;-49
2022/06/25 01:18:36;;;;;;;7.45;4.60;;;;;;;17.64;100.00;100755.50;5073858;28;20075;-54
2022/06/25 01:21:04;;;;;;;7.20;4.65;;;;;;;17.65;100.00;100754.50;5070522;28;20053;-46
2022/06/25 01:23:34;;;;;;;7.13;4.55;;;;;;;17.68;100.00;100761.34;5071438;28;20564;-51
2022/06/25 01:26:02;;;;;;;8.13;4.70;;;;;;;17.61;100.00;100763.75;5074197;28;20075;-49
2022/06/25 01:28:30;;;;;;;7.35;4.28;;;;;;;17.59;100.00;100768.41;5074329;28;20047;-50
2022/06/25 01:30:58;;;;;;;6.30;4.20;;;;;;;17.58;100.00;100764.88;5073804;28;20045;-48
2022/06/25 01:33:27;;;;;;;9.02;4.18;;;;;;;17.54;100.00;100763.50;5073827;28;20376;-47
2022/06/25 01:35:55;;;;;;;8.45;4.15;;;;;;;17.61;100.00;100770.91;5073652;28;20132;-49
2022/06/25 01:38:23;;;;;;;7.18;4.72;;;;;;;17.55;100.00;100767.00;5072989;28;20131;-48
2022/06/25 01:40:53;;;;;;;7.05;4.00;;;;;;;17.47;100.00;100775.72;5072363;28;20045;-53
2022/06/25 01:43:21;;;;;;;6.45;3.90;;;;;;;17.47;100.00;100777.56;5071218;28;20122;-47
2022/06/25 01:45:49;;;;;;;10.63;4.40;;;;;;;17.51;100.00;100777.09;5069303;28;20639;-55
2022/06/25 01:48:17;;;;;;;6.30;4.05;;;;;;;17.43;100.00;100781.47;5073179;28;20045;-50
2022/06/25 01:50:45;;;;;;;6.60;4.05;;;;;;;17.43;100.00;100781.47;5073680;28;20048;-52
2022/06/25 01:53:14;;;;;;;9.00;4.28;;;;;;;17.38;100.00;100785.41;5073322;28;20049;-52
2022/06/25 01:55:42;;;;;;;6.70;3.97;;;;;;;17.38;100.00;100785.41;5073232;28;20044;-47
2022/06/25 01:58:11;;;;;;;9.32;4.10;;;;;;;17.39;100.00;100787.06;5069416;28;20052;-49
2022/06/25 02:00:39;;;;;;;5.68;3.70;;;;;;;17.31;100.00;100799.44;5070242;28;20044;-48
2022/06/25 02:03:07;;;;;;;6.60;3.88;;;;;;;17.36;100.00;100805.97;5072177;28;20056;-45
2022/06/25 02:08:21;;;;;;;7.22;3.80;;;;;;;17.28;100.00;100800.56;5072156;28;20040;-51
2022/06/25 02:10:50;;;;;;;6.80;3.85;;;;;;;17.25;100.00;100811.47;5070405;28;20036;-55
2022/06/25 02:13:20;;;;;;;5.93;3.80;;;;;;;17.28;100.00;100816.50;5072700;28;20483;-48
2022/06/25 02:15:49;;;;;;;6.78;3.80;;;;;;;17.21;100.00;100812.75;5071720;28;20060;-47
2022/06/25 02:18:17;;;;;;;8.93;3.45;;;;;;;17.18;100.00;100813.88;5069072;28;20048;-47
2022/06/25 02:20:45;;;;;;;5.93;3.65;;;;;;;17.19;100.00;100820.88;5070283;28;20111;-47
2022/06/25 02:23:15;;;;;;;6.65;3.80;;;;;;;17.19;100.00;100828.84;5068009;28;20056;-48
2022/06/25 02:25:43;;;;;;;6.53;3.80;;;;;;;17.11;100.00;100827.88;5070910;28;20048;-54
2022/06/25 02:28:14;;;;;;;5.43;3.17;;;;;;;17.15;100.00;100822.13;5072595;28;20415;-51
2022/06/25 02:30:44;;;;;;;8.00;3.47;;;;;;;17.08;100.00;100825.50;5068935;28;20040;-48
2022/06/25 02:33:14;;;;;;;8.57;3.55;;;;;;;17.06;100.00;100829.13;5069160;28;20044;-48
2022/06/25 02:35:43;;;;;;;5.60;3.30;;;;;;;17.06;100.00;100833.63;5071057;28;20728;-49
2022/06/25 02:38:12;;;;;;;9.13;3.20;;;;;;;17.01;100.00;100839.34;5070085;28;20464;-54
2022/06/25 02:40:40;;;;;;;10.02;3.50;;;;;;;16.99;100.00;100843.97;5072715;28;20040;-51
2022/06/25 02:43:09;;;;;;;5.13;3.10;;;;;;;16.98;100.00;100847.59;5070310;28;20095;-53
2022/06/25 02:45:37;;;;;;;8.45;2.92;;;;;;;16.93;100.00;100843.69;5068716;28;20114;-48
2022/06/25 02:48:06;;;;;;;6.20;3.22;;;;;;;16.99;100.00;100848.47;5071771;28;20036;-54
2022/06/25 02:50:35;;;;;;;7.10;3.25;;;;;;;16.91;100.00;100857.13;5072714;28;20048;-46
2022/06/25 02:53:03;;;;;;;6.88;3.47;;;;;;;16.92;100.00;100852.63;5071344;28;20048;-55
2022/06/25 03:01:02;;;;;;;7.35;3.40;;;;;;;16.84;100.00;100874.56;5071431;28;20379;-45
2022/06/25 03:03:32;;;;;;;9.15;3.15;;;;;;;16.82;100.00;100872.03;5068335;28;20562;-50
2022/06/25 03:06:00;;;;;;;6.65;3.22;;;;;;;16.86;100.00;100865.47;5070238;28;20040;-48
2022/06/25 03:08:28;;;;;;;5.65;3.35;;;;;;;16.81;100.00;100872.19;5071940;28;20071;-54
2022/06/25 03:10:56;;;;;;;5.85;3.20;;;;;;;16.80;100.00;100865.22;5070769;28;20045;-52
2022/06/25 03:13:24;;;;;;;5.97;3.35;;;;;;;16.81;100.00;100872.19;5069001;28;20557;-48
2022/06/25 03:15:53;;;;;;;7.57;3.50;;;;;;;16.83;100.00;100871.06;5069335;28;20045;-52
2022/06/25 03:18:21;;;;;;;9.45;3.65;;;;;;;16.77;100.00;100874.28;5071686;28;20116;-53
2022/06/25 03:20:51;;;;;;;6.95;3.70;;;;;;;16.68;100.00;100875.94;5071702;28;20040;-46
2022/06/25 03:23:20;;;;;;;8.48;3.40;;;;;;;16.72;100.00;100869.38;5063889;28;20049;-49
2022/06/25 03:25:48;;;;;;;7.15;3.85;;;;;;;16.68;100.00;100870.63;5071532;28;20072;-53
2022/06/25 03:28:16;;;;;;;7.35;3.83;;;;;;;16.62;100.00;100878.31;5071184;28;20051;-45
2022/06/25 03:30:44;;;;;;;7.80;3.50;;;;;;;16.62;100.00;100873.88;5071781;28;20086;-53
2022/06/25 03:33:13;;;;;;;7.15;3.45;;;;;;;16.58;100.00;100883.09;5070090;28;20044;-46
2022/06/25 03:35:41;;;;;;;7.90;3.97;;;;;;;16.60;100.00;100882.94;5068149;28;20357;-54
2022/06/25 03:38:11;;;;;;;7.78;3.58;;;;;;;16.58;100.00;100883.09;5067974;28;20067;-47
2022/06/25 03:40:39;;;;;;;7.07;3.47;;;;;;;16.66;100.00;100877.91;5071312;28;20036;-52
2022/06/25 03:43:07;;;;;;;6.22;3.38;;;;;;;16.68;100.00;100883.09;5071565;28;20554;-46
2022/06/25 03:45:35;;;;;;;8.25;3.38;;;;;;;16.70;100.00;100886.44;5069157;28;20052;-51
2022/06/25 03:48:03;;;;;;;6.30;3.35;;;;;;;16.65;100.00;100892.16;5068901;28;20028;-49
2022/06/25 03:50:33;;;;;;;6.40;3.03;;;;;;;16.68;100.00;100893.72;5068099;28;20499;-55
2022/06/25 03:53:01;;;;;;;8.57;3.08;;;;;;;16.64;100.00;100892.31;5069752;28;20131;-50
2022/06/25 03:55:31;;;;;;;8.07;3.53;;;;;;;16.64;100.00;100890.47;5065542;28;20114;-55
2022/06/25 03:58:19;;;;;;;7.10;3.58;;;;;;;16.64;100.00;100890.47;5069423;28;20493;-49
2022/06/25 04:00:47;;;;;;;8.40;4.07;;;;;;;16.65;100.00;100886.84;5070944;28;20371;-50
2022/06/25 04:03:15;;;;;;;7.35;3.40;;;;;;;16.67;100.00;100887.53;5063813;28;20064;-54
2022/06/25 04:05:43;;;;;;;7.00;3.28;;;;;;;16.68;100.00;100885.75;5065759;28;20098;-54
2022/06/25 04:08:11;;;;;;;7.43;3.58;;;;;;;16.68;100.00;100888.41;5071021;28;20119;-47
2022/06/25 04:10:40;;;;;;;5.60;3.30;;;;;;;16.69;100.00;100892.75;5071219;28;20041;-48
2022/06/25 04:13:09;;;;;;;7.75;3.75;;;;;;;16.67;100.00;100892.84;5071118;28;20044;-50
2022/06/25 04:15:37;;;;;;;6.72;4.28;;;;;;;16.70;100.00;100895.25;5067490;28;20479;-53
2022/06/25 04:18:05;;;;;;;11.05;4.57;;;;;;;16.68;100.00;100894.53;5067329;28;20056;-51
2022/06/25 04:20:34;;;;;;;10.40;4.38;;;;;;;16.71;100.00;100893.44;5071533;28;20032;-48
2022/06/25 04:23:02;;;;;;;11.13;4.78;;;;;;;16.73;100.00;100897.63;5071055;28;20044;-48
2022/06/25 04:25:30;;;;;;;9.32;4.60;;;;;;;16.72;100.00;100892.44;5071377;28;20446;-53
2022/06/25 04:30:45;;;;;;;9.05;4.90;;;;;;;16.76;100.00;100906.31;5070863;28;20052;-54
2022/06/25 04:33:14;;;;;;;8.35;4.75;;;;;;;16.78;100.00;100901.69;5070940;28;20052;-55
2022/06/25 04:35:43;;;;;;;10.65;5.40;;;;;;;16.87;100.00;100904.31;5070745;28;20060;-47
2022/06/25 04:38:11;;;;;;;10.07;5.10;;;;;;;16.80;100.00;100905.88;5068115;28;20060;-47
2022/06/25 04:40:39;;;;;;;9.35;4.95;;;;;;;16.82;100.00;100909.22;5070840;28;20041;-53
2022/06/25 04:43:08;;;;;;;10.32;5.47;;;;;;;16.88;100.00;100907.84;5067596;28;20044;-50
2022/06/25 04:45:36;;;;;;;8.63;5.18;;;;;;;16.87;100.00;100914.13;5065561;28;20060;-53
2022/06/25 04:48:05;;;;;;;7.80;5.43;;;;;;;16.95;100.00;100908.16;5070317;28;20093;-52
2022/06/25 04:50:33;;;;;;;11.13;5.25;;;;;;;16.98;100.00;100913.19;5070568;28;20118;-52
2022/06/25 04:53:01;;;;;;;12.10;5.93;;;;;;;17.03;100.00;100917.09;5068566;28;20040;-49
2022/06/25 04:55:29;;;;;;;9.90;5.75;;;;;;;17.06;100.00;100929.25;5070230;28;20044;-55
2022/06/25 04:57:57;;;;;;;9.30;5.80;;;;;;;17.16;100.00;100934.56;5070016;28;20060;-50
2022/06/25 05:00:27;;;;;;;8.90;5.22;;;;;;;17.22;100.00;100934.00;5070018;28;20040;-49
2022/06/25 05:02:55;;;;;;;10.18;5.82;;;;;;;17.24;100.00;100932.88;5068769;28;20048;-51
2022/06/25 05:05:23;;;;;;;9.02;5.50;;;;;;;17.32;100.00;100934.00;5066714;28;20127;-53
2022/06/25 05:07:51;;;;;;;10.27;5.32;;;;;;;17.40;100.00;100937.59;5067822;28;20121;-55
2022/06/25 05:10:19;;;;;;;10.52;5.45;;;;;;;17.43;100.00;100930.34;5068270;28;20083;-52
2022/06/25 05:15:35;;;;;;;8.25;5.55;;;;;;;17.67;100.00;100932.50;5067949;28;20407;-53
2022/06/25 05:18:03;;;;;;;9.23;5.75;;;;;;;17.71;100.00;100934.75;5070343;28;20044;-50
2022/06/25 05:20:31;;;;;;;9.05;5.50;;;;;;;17.85;100.00;100940.59;5071315;28;20094;-45
2022/06/25 05:22:59;;;;;;;7.18;5.22;;;;;;;17.99;100.00;100942.81;5071561;28;20561;-50
2022/06/25 05:25:28;;;;;;;9.98;5.50;;;;;;;18.06;100.00;100937.72;5074277;28;20068;-49
2022/06/25 05:27:55;;;;;;;7.97;4.95;;;;;;;18.14;100.00;100945.00;5073771;28;20102;-54
2022/06/25 05:30:24;;;;;;;8.88;5.38;;;;;;;18.24;100.00;100943.09;5073607;28;20051;-52
2022/06/25 05:32:53;;;;;;;7.32;4.68;;;;;;;18.37;100.00;100946.25;5074140;28;20047;-46
2022/06/25 05:35:21;;;;;;;8.40;4.75;;;;;;;18.54;100.00;100955.28;5074477;28;20053;-52
2022/06/25 05:37:49;;;;;;;8.05;4.72;;;;;;;18.67;100.00;100948.78;5073669;28;20494;-52
2022/06/25 05:40:18;;;;;;;7.70;4.45;;;;;;;18.82;100.00;100959.75;5072276;28;20064;-45
2022/06/25 05:42:46;;;;;;;7.70;4.53;;;;;;;18.90;100.00;100957.19;5073758;28;20036;-52
2022/06/25 05:45:14;;;;;;;9.80;4.70;;;;;;;19.03;100.00;100965.66;5069301;28;20049;-56
2022/06/25 05:47:42;;;;;;;9.57;4.90;;;;;;;19.14;100.00;100961.06;5069713;28;20036;-54
2022/06/25 05:50:13;;;;;;;6.18;3.70;;;;;;;19.21;100.00;100960.31;5070772;28;20094;-51
2022/06/25 05:52:41;;;;;;;6.85;3.60;;;;;;;19.27;100.00;100969.50;5071158;28;20044;-52
2022/06/25 05:55:10;;;;;;;7.30;3.58;;;;;;;19.29;100.00;100970.19;5069140;28;20041;-56
2022/06/25 05:57:38;;;;;;;7.10;4.30;;;;;;;19.29;100.00;100972.00;5067984;28;20053;-47
2022/06/25 06:00:08;;;;;;;8.68;3.85;;;;;;;19.19;100.00;100969.44;5074039;28;20060;-44
2022/06/25 06:02:36;;;;;;;8.57;3.72;;;;;;;19.22;100.00;100975.31;5071243;28;20071;-45
2022/06/25 06:05:05;;;;;;;7.63;3.92;;;;;;;19.17;100.00;100982.06;5072505;28;20484;-54
2022/06/25 06:07:34;;;;;;;6.68;3.80;;;;;;;19.30;100.00;100979.84;5072382;28;20036;-47
2022/06/25 06:10:04;;;;;;;6.60;3.65;;;;;;;19.43;100.00;100985.63;5068214;28;20450;-51
2022/06/25 06:12:32;;;;;;;8.77;4.38;;;;;;;19.48;100.00;100990.50;5073312;28;20122;-46
2022/06/25 06:15:00;;;;;;;7.32;4.03;;;;;;;19.52;100.00;100983.84;5074310;28;20044;-46
2022/06/25 06:17:29;;;;;;;10.73;3.88;;;;;;;19.67;100.00;100994.81;5074110;28;20056;-53
2022/06/25 06:19:57;;;;;;;6.68;3.60;;;;;;;19.74;100.00;100984.34;5074235;28;20122;-51
2022/06/25 06:22:25;;;;;;;5.28;3.33;;;;;;;19.82;100.00;100994.28;5073961;28;20052;-44
2022/06/25 06:24:55;;;;;;;6.57;3.28;;;;;;;19.86;98.92;100995.63;5074108;28;20111;-52
2022/06/25 06:27:23;;;;;;;5.85;3.15;;;;;;;19.99;99.12;100998.72;5074031;28;20049;-44
2022/06/25 06:29:51;;;;;;;7.05;3.22;;;;;;;20.08;96.24;100989.78;5074228;28;20094;-44
2022/06/25 06:32:19;;;;;;;8.02;3.00;;;;;;;20.24;95.13;101004.19;5070905;28;20373;-50
2022/06/25 06:34:47;;;;;;;8.57;2.90;;;;;;;20.33;94.28;100997.91;5070330;28;20048;-55
2022/06/25 06:37:15;;;;;;;7.60;3.30;;;;;;;20.41;93.75;101000.59;5071737;28;20053;-53
2022/06/25 06:39:46;;;;;;;6.70;3.17;;;;;;;20.58;96.60;100989.97;5072723;28;20463;-55
2022/06/25 06:42:16;;;;;;;6.03;2.92;;;;;;;20.68;93.24;100995.16;5072712;28;20476;-51
2022/06/25 06:44:44;;;;;;;7.75;2.90;;;;;;;20.73;93.92;101004.41;5072386;28;20048;-49
2022/06/25 06:47:12;;;;;;;7.22;2.85;;;;;;;20.81;92.43;101000.09;5072481;28;20049;-45
2022/06/25 06:49:40;;;;;;;6.13;3.13;;;;;;;20.93;90.76;100999.59;5072431;28;20052;-55
2022/06/25 06:52:08;;;;;;;6.25;2.55;;;;;;;21.11;91.57;100996.78;5072091;28;20036;-54
2022/06/25 06:54:36;;;;;;;4.00;2.47;;;;;;;20.97;88.63;100997.44;5072543;28;20037;-50
2022/06/25 06:57:04;;;;;;;6.72;3.03;;;;;;;21.17;90.75;101005.16;5072072;28;20543;-57
2022/06/25 06:59:34;;;;;;;6.07;3.13;;;;;;;21.14;90.56;101000.16;5072061;28;20115;-56
2022/06/25 07:02:02;;;;;;;6.50;2.53;;;;;;;21.35;91.15;101005.84;5069420;28;20573;-50
2022/06/25 07:04:30;;;;;;;6.90;2.85;;;;;;;21.58;88.41;101007.84;5066972;28;20415;-50
2022/06/25 07:06:58;;;;;;;5.47;2.78;;;;;;;21.72;87.23;101007.19;5073167;28;20074;-48
2022/06/25 07:09:26;;;;;;;5.15;3.00;;;;;;;21.90;86.29;101006.16;5073140;28;20040;-50
2022/06/25 07:11:54;;;;;;;6.13;2.53;;;;;;;22.07;86.85;101010.47;5073133;28;20127;-54
2022/06/25 07:14:22;;;;;;;6.55;2.42;;;;;;;22.06;84.39;101010.63;5072952;28;20106;-55
2022/06/25 07:16:52;;;;;;;5.30;2.53;;;;;;;22.19;85.49;101010.09;5070300;28;20131;-49
2022/06/25 07:19:20;;;;;;;6.00;2.47;;;;;;;22.17;84.16;101006.72;5068376;28;20053;-56
2022/06/25 07:21:48;;;;;;;5.68;2.70;;;;;;;22.15;83.02;101008.75;5069354;28;20068;-55
2022/06/25 07:24:16;;;;;;;5.75;2.65;;;;;;;22.24;82.37;101007.75;5066673;28;20063;-51
2022/06/25 07:26:44;;;;;;;8.30;3.00;;;;;;;22.02;83.76;101020.84;5068656;28;20045;-54
2022/06/25 07:29:12;;;;;;;6.32;2.80;;;;;;;22.05;82.47;101008.97;5071647;28;20492;-55
2022/06/25 07:31:40;;;;;;;7.90;2.65;;;;;;;22.42;82.59;101016.38;5072100;28;20475;-53
2022/06/25 07:34:17;;;;;;;5.55;2.25;;;;;;;22.61;83.19;101008.94;5072054;28;20064;-55
2022/06/25 07:36:45;;;;;;;6.85;2.40;;;;;;;22.77;79.84;101014.22;5068370;28;20155;-49
2022/06/25 07:39:13;;;;;;;4.90;2.10;;;;;;;22.65;80.53;101018.31;5069024;28;20044;-48
2022/06/25 07:41:41;;;;;;;6.40;2.38;;;;;;;22.52;80.59;101018.03;5067030;28;20051;-46
2022/06/25 07:44:09;;;;;;;4.57;2.40;;;;;;;22.52;78.91;101020.72;5069901;28;20048;-56
2022/06/25 07:46:37;;;;;;;5.75;2.88;;;;;;;22.78;79.97;101017.72;5068172;28;20051;-53
2022/06/25 07:49:07;;;;;;;5.05;2.33;;;;;;;22.88;78.78;101022.88;5068429;28;20036;-49
2022/06/25 07:54:22;;;;;;;5.13;2.28;;;;;;;22.99;77.50;101017.09;5071109;28;20051;-56
2022/06/25 07:56:51;;;;;;;5.95;2.10;;;;;;;22.97;77.53;101024.47;5071372;28;20068;-54
2022/06/25 07:59:19;;;;;;;4.30;2.17;;;;;;;22.81;77.42;101024.56;5069543;28;20044;-47
2022/06/25 08:01:47;;;;;;;6.75;1.88;;;;;;;23.29;79.92;101022.63;5069582;28;20064;-51
2022/06/25 08:04:15;;;;;;;6.25;1.63;;;;;;;23.59;76.76;101028.09;5067845;28;20041;-54
2022/06/25 08:06:46;;;;;;;4.30;1.80;;;;;;;23.73;76.22;101027.25;5069786;28;20064;-55
2022/06/25 08:09:14;;;;;;;4.55;1.88;;;;;;;23.58;73.94;101026.41;5068298;28;20131;-57
2022/06/25 08:11:42;;;;;;;6.22;1.83;;;;;;;23.62;74.78;101022.34;5071379;28;20044;-53
2022/06/25 08:14:11;;;;;;;3.95;1.60;;;;;;;23.92;74.76;101030.47;5071001;28;20090;-55
2022/06/25 08:16:39;;;;;;;3.83;1.70;;;;;;;23.69;75.45;101025.16;5068721;28;20479;-55
2022/06/25 08:19:07;;;;;;;4.25;1.95;;;;;;;23.75;74.06;101033.31;5070909;28;20098;-56
2022/06/25 08:21:36;;;;;;;4.13;1.35;;;;;;;24.04;74.08;101026.31;5070805;28;20605;-54
2022/06/25 08:24:06;;;;;;;3.42;1.40;;;;;;;24.32;74.36;101022.97;5070621;28;20060;-45
2022/06/25 08:26:34;;;;;;;3.20;1.45;;;;;;;24.48;70.51;101032.69;5067205;28;20486;-47
2022/06/25 08:29:02;;;;;;;2.40;1.30;;;;;;;24.51;70.25;101034.19;5069796;28;20140;-48
2022/06/25 08:31:30;;;;;;;2.35;1.10;;;;;;;24.55;70.77;101022.84;5070647;28;20054;-48
2022/06/25 08:33:59;;;;;;;3.33;1.77;;;;;;;24.39;71.52;101034.66;5071961;28;20045;-48
2022/06/25 08:36:27;;;;;;;4.97;1.60;;;;;;;24.35;69.40;101028.00;5068490;28;20047;-50
2022/06/25 08:38:55;;;;;;;4.60;1.45;;;;;;;24.55;70.37;101038.16;5069776;28;20044;-48
2022/06/25 08:41:25;;;;;;;3.97;1.17;;;;;;;24.53;69.80;101030.28;5070776;28;20045;-50
2022/06/25 08:43:53;;;;;;;3.15;1.30;;;;;;;24.59;69.98;101034.91;5071465;28;20079;-46
2022/06/25 08:46:21;;;;;;;4.35;1.33;;;;;;;24.88;69.38;101035.06;5068612;28;20442;-45
2022/06/25 08:48:51;;;;;;;4.13;1.75;;;;;;;25.27;71.37;101039.19;5067899;28;20122;-54
2022/06/25 08:51:20;;;;;;;6.00;2.03;;;;;;;25.01;67.88;101042.44;5069924;28;20048;-50
2022/06/25 08:53:49;;;;;;;4.13;1.55;;;;;;;25.01;67.91;101034.38;5067460;28;20044;-53
2022/06/25 08:56:18;;;;;;;2.25;1.20;;;;;;;25.40;68.98;101036.66;5070851;28;20044;-56
2022/06/25 08:58:47;;;;;;;4.75;1.52;;;;;;;25.88;65.18;101032.44;5075605;28;20450;-55
2022/06/25 09:01:15;;;;;;;3.63;1.38;;;;;;;25.73;66.29;101046.88;5075470;28;20048;-48
2022/06/25 09:03:44;;;;;;;4.65;1.50;;;;;;;25.54;65.38;101032.22;5075018;28;20053;-54
2022/06/25 09:06:14;;;;;;;5.18;1.30;;;;;;;25.55;64.13;101039.28;5071727;28;20044;-50
2022/06/25 09:08:42;;;;;;;2.35;1.20;;;;;;;25.63;63.80;101028.34;5074148;28;20064;-48
2022/06/25 09:11:11;;;;;;;3.13;1.30;;;;;;;25.60;63.43;101039.50;5075317;28;20127;-55
2022/06/25 09:13:39;;;;;;;3.97;1.30;;;;;;;25.70;63.09;101035.63;5075124;28;20503;-49
2022/06/25 09:16:24;;;;;;;4.30;1.38;;;;;;;25.85;63.23;101033.69;5075259;28;20422;-53
2022/06/25 09:18:52;;;;;;;5.00;1.30;;;;;;;26.24;64.20;101031.47;5075343;28;20049;-55
2022/06/25 09:21:20;;;;;;;4.72;1.50;;;;;;;26.07;62.09;101031.78;5075037;28;20119;-48
2022/06/25 09:23:57;;;;;;;4.68;1.40;;;;;;;26.30;61.43;101039.59;5075004;28;20048;-47
2022/06/25 09:26:25;;;;;;;2.92;1.50;;;;;;;26.55;60.93;101033.69;5074916;28;20090;-49
2022/06/25 09:28:53;;;;;;;4.25;1.40;;;;;;;26.14;61.97;101032.66;5074958;28;20097;-55
2022/06/25 09:31:36;;;;;;;5.03;1.60;;;;;;;26.18;62.49;101034.94;5073395;28;20109;-56
2022/06/25 09:34:04;;;;;;;;;;;;;;;26.34;62.06;101033.78;5071537;28;20064;-45
2022/06/25 09:36:32;;;;;;;1.98;1.00;;;;;;;26.18;62.23;101040.34;5074175;28;20391;-50
2022/06/25 09:39:00;;;;;;;4.55;1.20;;;;;;;26.06;61.69;101034.69;5074848;28;20475;-53
2022/06/25 09:41:49;;;;;;;3.50;0.90;;;;;;;25.94;60.71;101042.44;5073772;28;20041;-55
2022/06/25 09:44:18;;;;;;;4.05;1.02;;;;;;;25.61;62.60;101043.03;5070619;28;20579;-48
2022/06/25 09:47:00;;;;;;;2.17;1.00;;;;;;;25.10;62.41;101046.66;5073495;28;20040;-51
2022/06/25 09:49:29;;;;;;;4.05;1.20;;;;;;;25.27;63.70;101044.56;5074445;28;20044;-49
2022/06/25 09:52:00;;;;;;;2.95;1.00;;;;;;;25.23;64.08;101045.97;5073037;28;20115;-47
2022/06/25 09:54:29;;;;;;;3.90;1.10;;;;;;;25.20;63.85;101051.75;5070771;28;20491;-48
2022/06/25 09:56:57;;;;;;;4.65;1.13;;;;;;;25.24;64.39;101053.03;5072249;28;20056;-56
2022/06/25 09:59:26;;;;;;;2.05;1.10;;;;;;;25.23;63.51;101051.38;5074445;28;20136;-56
2022/06/25 10:01:54;;;;;;;2.72;1.15;;;;;;;25.11;64.93;101054.56;5070908;28;20059;-56
2022/06/25 10:04:27;;;;;;;4.35;1.20;;;;;;;25.19;65.38;101052.78;5072191;28;20052;-51
2022/06/25 10:06:57;;;;;;;6.68;1.30;;;;;;;24.68;66.86;101050.94;5074342;28;20052;-50
2022/06/25 10:09:26;;;;;;;4.18;1.13;;;;;;;24.64;68.22;101050.50;5071071;28;20519;-56
2022/06/25 10:11:55;;;;;;;6.28;1.30;;;;;;;24.66;66.88;101055.69;5068405;28;20048;-52
2022/06/25 10:14:23;;;;;;;3.25;1.25;;;;;;;24.79;66.44;101045.09;5073589;28;20036;-51
2022/06/25 10:16:51;;;;;;;4.13;1.30;;;;;;;24.78;67.31;101055.00;5074459;28;20070;-56
2022/06/25 10:19:24;;;;;;;5.03;1.10;;;;;;;24.72;67.11;101055.78;5074102;28;20119;-48
2022/06/25 10:21:54;;;;;;;3.70;1.48;;;;;;;24.60;67.07;101063.44;5074052;28;20044;-50
2022/06/25 10:24:22;;;;;;;4.32;1.27;;;;;;;24.42;67.71;101055.78;5073745;28;20056;-53
2022/06/25 10:26:51;;;;;;;4.68;1.45;;;;;;;24.36;67.56;101056.50;5072312;28;20515;-54
2022/06/25 10:29:24;;;;;;;2.63;1.30;;;;;;;24.45;71.06;101058.09;5073857;28;20041;-49
2022/06/25 10:32:13;;;;;;;5.43;1.30;;;;;;;24.48;69.00;101063.09;5072161;28;20059;-48
2022/06/25 10:34:53;;;;;;;4.93;1.40;;;;;;;24.50;67.81;101054.00;5070676;28;20036;-55
2022/06/25 10:37:23;;;;;;;2.65;1.17;;;;;;;24.51;67.33;101053.81;5073621;28;20387;-51
2022/06/25 10:39:53;;;;;;;2.28;1.10;;;;;;;24.09;68.41;101060.69;5072689;28;20060;-52
2022/06/25 10:45:45;;;;;;;2.10;1.40;;;;;;;24.51;69.65;101053.00;5072434;28;20458;-55
2022/06/25 10:48:14;;;;;;;2.22;1.02;;;;;;;24.43;69.01;101064.66;5073697;28;20469;-53
2022/06/25 10:50:49;;;;;;;2.80;1.33;;;;;;;24.44;68.28;101064.47;5073628;28;20451;-47
2022/06/25 10:53:23;;;;;;;3.90;1.23;;;;;;;24.55;68.61;101065.88;5071119;28;20040;-49
2022/06/25 10:56:16;;;;;;;2.47;1.30;;;;;;;24.40;68.34;101062.38;5068611;28;20388;-51
2022/06/25 10:58:46;;;;;;;;;;;;;;;24.57;68.46;101060.28;5074048;28;20044;-47
2022/06/25 11:01:29;;;;;;;3.33;1.40;;;;;;;24.34;67.86;101066.63;5073304;28;19920;-50
2022/06/25 11:03:59;;;;;;;3.40;1.35;;;;;;;24.26;69.41;101072.09;5073387;28;20052;-55
2022/06/25 11:06:30;;;;;;;2.35;1.35;;;;;;;24.38;68.95;101059.00;5073082;28;20049;-54
2022/06/25 11:09:15;;;;;;;4.60;1.30;;;;;;;24.03;69.98;101064.13;5069100;28;20044;-56
2022/06/25 11:11:45;;;;;;;3.47;1.30;;;;;;;24.11;72.33;101059.47;5069400;28;20040;-55
2022/06/25 11:14:17;;;;;;;2.67;1.27;;;;;;;24.09;70.69;101068.75;5072940;28;20044;-55
2022/06/25 11:16:45;;;;;;;3.25;1.48;;;;;;;23.88;72.11;101069.44;5072710;28;20530;-55
2022/06/25 11:19:13;;;;;;;6.05;1.50;;;;;;;23.86;72.33;101066.94;5072717;28;20048;-53
2022/06/25 11:21:44;;;;;;;2.60;1.30;;;;;;;23.78;70.88;101069.69;5071793;28;20048;-53
2022/06/25 11:24:19;;;;;;;4.75;1.70;;;;;;;23.84;72.95;101070.81;5069040;28;20079;-52
2022/06/25 11:29:38;;;;;;;4.38;1.60;;;;;;;23.76;78.14;101075.25;5073162;28;20067;-54
2022/06/25 11:32:08;;;;;;;4.50;1.58;;;;;;;23.93;76.26;101059.84;5071763;28;20090;-57
2022/06/25 11:34:36;;;;;;;6.53;1.67;;;;;;;23.75;76.07;101065.53;5069633;28;20048;-50
2022/06/25 11:37:09;;;;;;;3.72;1.92;;;;;;;23.68;75.79;101069.94;5070949;28;20106;-55
2022/06/25 11:39:40;;;;;;;7.38;1.92;;;;;;;23.87;74.69;101062.38;5072526;28;20492;-46
2022/06/25 11:42:10;;;;;;;4.25;1.92;;;;;;;24.00;74.54;101062.63;5072045;28;20503;-48
2022/06/25 11:44:40;;;;;;;4.18;1.40;;;;;;;24.20;74.04;101064.75;5071739;28;20511;-53
2022/06/25 11:47:08;;;;;;;3.15;1.33;;;;;;;24.43;72.80;101070.91;5072406;28;20076;-52
2022/06/25 11:49:37;;;;;;;4.80;1.83;;;;;;;24.69;74.55;101061.53;5069869;28;20558;-50
2022/06/25 11:52:06;;;;;;;6.38;1.70;;;;;;;24.70;70.15;101065.88;5068172;28;20044;-53
2022/06/25 11:54:36;;;;;;;5.05;1.77;;;;;;;24.76;68.89;101072.34;5072148;28;20045;-55
2022/06/25 11:57:07;;;;;;;3.58;1.50;;;;;;;24.88;68.89;101062.81;5072246;28;20444;-53